sensor_id;sensor_type;location;lat;lon;timestamp;temperature;humidity
12602;DHT22;30282;16.436;99.370;2023-06-04T00:01:51;28.50;99.90
12602;DHT22;30282;16.436;99.370;2023-06-04T00:04:20;28.60;99.90
12602;DHT22;30282;16.436;99.370;2023-06-04T00:06:50;28.70;99.90
12602;DHT22;30282;16.436;99.370;2023-06-04T00:09:29;28.70;99.90
12602;DHT22;30282;16.436;99.370;2023-06-04T00:12:02;28.80;99.90
12602;DHT22;30282;16.436;99.370;2023-06-04T00:14:32;28.90;99.90
12602;DHT22;30282;16.436;99.370;2023-06-04T00:17:02;28.90;99.90
12602;DHT22;30282;16.436;99.370;2023-06-04T00:19:31;29.00;99.90
12602;DHT22;30282;16.436;99.370;2023-06-04T00:22:00;29.10;99.90
12602;DHT22;30282;16.436;99.370;2023-06-04T00:24:31;29.20;99.90
12602;DHT22;30282;16.436;99.370;2023-06-04T00:27:01;29.30;99.90
12602;DHT22;30282;16.436;99.370;2023-06-04T00:29:30;29.30;99.90
12602;DHT22;30282;16.436;99.370;2023-06-04T00:31:59;29.30;99.90
12602;DHT22;30282;16.436;99.370;2023-06-04T00:34:31;29.40;99.90
12602;DHT22;30282;16.436;99.370;2023-06-04T00:37:00;29.40;99.90
12602;DHT22;30282;16.436;99.370;2023-06-04T00:39:31;29.50;99.90
12602;DHT22;30282;16.436;99.370;2023-06-04T00:42:01;29.50;99.90
12602;DHT22;30282;16.436;99.370;2023-06-04T00:44:30;29.50;99.90
12602;DHT22;30282;16.436;99.370;2023-06-04T00:47:00;29.50;99.90
12602;DHT22;30282;16.436;99.370;2023-06-04T00:49:31;29.50;99.90
12602;DHT22;30282;16.436;99.370;2023-06-04T00:52:01;29.60;99.90
12602;DHT22;30282;16.436;99.370;2023-06-04T00:54:32;29.70;99.90
12602;DHT22;30282;16.436;99.370;2023-06-04T00:57:01;29.80;99.90
12602;DHT22;30282;16.436;99.370;2023-06-04T00:59:32;29.80;99.90
12602;DHT22;30282;16.436;99.370;2023-06-04T01:02:05;29.80;99.90
12602;DHT22;30282;16.436;99.370;2023-06-04T01:04:37;29.90;99.90
12602;DHT22;30282;16.436;99.370;2023-06-04T01:07:10;29.90;99.90
12602;DHT22;30282;16.436;99.370;2023-06-04T01:09:44;30.00;99.90
12602;DHT22;30282;16.436;99.370;2023-06-04T01:12:17;30.00;99.90
12602;DHT22;30282;16.436;99.370;2023-06-04T01:14:46;30.10;99.90
12602;DHT22;30282;16.436;99.370;2023-06-04T01:17:19;30.20;99.90
12602;DHT22;30282;16.436;99.370;2023-06-04T01:20:16;30.20;99.90
12602;DHT22;30282;16.436;99.370;2023-06-04T01:25:58;30.30;99.90
12602;DHT22;30282;16.436;99.370;2023-06-04T01:28:30;30.40;99.90
12602;DHT22;30282;16.436;99.370;2023-06-04T01:30:59;30.60;99.90
12602;DHT22;30282;16.436;99.370;2023-06-04T01:33:29;30.70;99.90
12602;DHT22;30282;16.436;99.370;2023-06-04T01:35:58;30.80;99.90
12602;DHT22;30282;16.436;99.370;2023-06-04T01:38:29;31.00;99.90
12602;DHT22;30282;16.436;99.370;2023-06-04T01:41:03;30.90;99.90
12602;DHT22;30282;16.436;99.370;2023-06-04T01:43:32;31.00;99.90
12602;DHT22;30282;16.436;99.370;2023-06-04T01:46:02;31.00;99.90
12602;DHT22;30282;16.436;99.370;2023-06-04T01:48:32;31.20;99.90
12602;DHT22;30282;16.436;99.370;2023-06-04T01:51:01;31.30;99.90
12602;DHT22;30282;16.436;99.370;2023-06-04T01:53:32;31.40;99.90
12602;DHT22;30282;16.436;99.370;2023-06-04T01:56:03;31.40;99.90
12602;DHT22;30282;16.436;99.370;2023-06-04T01:58:34;31.50;99.90
12602;DHT22;30282;16.436;99.370;2023-06-04T02:01:04;31.50;99.90
12602;DHT22;30282;16.436;99.370;2023-06-04T02:03:33;31.50;99.90
12602;DHT22;30282;16.436;99.370;2023-06-04T02:06:04;31.60;99.90
12602;DHT22;30282;16.436;99.370;2023-06-04T02:08:34;31.70;99.90
12602;DHT22;30282;16.436;99.370;2023-06-04T02:11:05;31.60;99.90
12602;DHT22;30282;16.436;99.370;2023-06-04T02:13:35;31.70;99.90
12602;DHT22;30282;16.436;99.370;2023-06-04T02:16:05;31.70;99.90
12602;DHT22;30282;16.436;99.370;2023-06-04T02:18:34;31.90;99.90
12602;DHT22;30282;16.436;99.370;2023-06-04T02:21:04;32.00;99.90
12602;DHT22;30282;16.436;99.370;2023-06-04T02:23:36;32.00;99.90
12602;DHT22;30282;16.436;99.370;2023-06-04T02:26:07;32.10;99.90
12602;DHT22;30282;16.436;99.370;2023-06-04T02:28:36;32.20;99.90
12602;DHT22;30282;16.436;99.370;2023-06-04T02:31:05;32.30;99.90
12602;DHT22;30282;16.436;99.370;2023-06-04T02:33:35;32.40;99.90
12602;DHT22;30282;16.436;99.370;2023-06-04T02:36:04;32.50;99.90
12602;DHT22;30282;16.436;99.370;2023-06-04T02:38:35;32.50;99.90
12602;DHT22;30282;16.436;99.370;2023-06-04T02:41:06;32.60;99.90
12602;DHT22;30282;16.436;99.370;2023-06-04T02:43:36;32.60;99.90
12602;DHT22;30282;16.436;99.370;2023-06-04T02:46:08;32.60;99.90
12602;DHT22;30282;16.436;99.370;2023-06-04T02:48:37;32.60;99.90
12602;DHT22;30282;16.436;99.370;2023-06-04T02:51:06;32.70;99.90
12602;DHT22;30282;16.436;99.370;2023-06-04T02:53:39;32.80;99.90
12602;DHT22;30282;16.436;99.370;2023-06-04T02:56:14;32.90;99.90
12602;DHT22;30282;16.436;99.370;2023-06-04T02:58:50;33.00;99.90
12602;DHT22;30282;16.436;99.370;2023-06-04T03:01:20;33.00;99.90
12602;DHT22;30282;16.436;99.370;2023-06-04T03:03:50;33.10;99.90
12602;DHT22;30282;16.436;99.370;2023-06-04T03:06:20;33.00;99.90
12602;DHT22;30282;16.436;99.370;2023-06-04T03:08:50;33.00;99.90
12602;DHT22;30282;16.436;99.370;2023-06-04T03:11:21;33.10;99.90
12602;DHT22;30282;16.436;99.370;2023-06-04T03:13:50;33.20;99.90
12602;DHT22;30282;16.436;99.370;2023-06-04T03:16:20;33.40;99.90
12602;DHT22;30282;16.436;99.370;2023-06-04T03:18:49;33.40;99.90
12602;DHT22;30282;16.436;99.370;2023-06-04T03:21:18;33.50;99.90
12602;DHT22;30282;16.436;99.370;2023-06-04T03:23:48;33.50;99.90
12602;DHT22;30282;16.436;99.370;2023-06-04T03:26:24;33.40;99.90
12602;DHT22;30282;16.436;99.370;2023-06-04T03:28:54;33.50;99.90
12602;DHT22;30282;16.436;99.370;2023-06-04T03:31:23;33.40;99.90
12602;DHT22;30282;16.436;99.370;2023-06-04T03:33:53;33.50;99.90
12602;DHT22;30282;16.436;99.370;2023-06-04T03:36:22;33.60;99.90
12602;DHT22;30282;16.436;99.370;2023-06-04T03:38:58;33.70;99.90
12602;DHT22;30282;16.436;99.370;2023-06-04T03:41:29;33.70;99.90
12602;DHT22;30282;16.436;99.370;2023-06-04T03:43:58;33.70;99.90
12602;DHT22;30282;16.436;99.370;2023-06-04T03:46:27;33.70;99.90
12602;DHT22;30282;16.436;99.370;2023-06-04T03:49:00;33.70;99.90
12602;DHT22;30282;16.436;99.370;2023-06-04T03:51:29;33.90;99.90
12602;DHT22;30282;16.436;99.370;2023-06-04T03:54:00;33.90;99.90
12602;DHT22;30282;16.436;99.370;2023-06-04T03:56:31;33.90;99.90
12602;DHT22;30282;16.436;99.370;2023-06-04T03:59:00;34.00;99.90
12602;DHT22;30282;16.436;99.370;2023-06-04T04:01:30;34.00;99.90
12602;DHT22;30282;16.436;99.370;2023-06-04T04:03:59;34.10;99.90
12602;DHT22;30282;16.436;99.370;2023-06-04T04:06:31;34.20;99.90
12602;DHT22;30282;16.436;99.370;2023-06-04T04:09:00;34.30;99.90
12602;DHT22;30282;16.436;99.370;2023-06-04T04:11:32;34.40;99.90
12602;DHT22;30282;16.436;99.370;2023-06-04T04:14:01;34.40;99.90
12602;DHT22;30282;16.436;99.370;2023-06-04T04:16:31;34.30;99.90
12602;DHT22;30282;16.436;99.370;2023-06-04T04:19:00;34.40;99.90
12602;DHT22;30282;16.436;99.370;2023-06-04T04:21:29;34.50;99.90
12602;DHT22;30282;16.436;99.370;2023-06-04T04:23:58;34.70;99.90
12602;DHT22;30282;16.436;99.370;2023-06-04T04:26:28;34.60;99.90
12602;DHT22;30282;16.436;99.370;2023-06-04T04:28:59;34.50;99.90
12602;DHT22;30282;16.436;99.370;2023-06-04T04:31:28;34.70;99.90
12602;DHT22;30282;16.436;99.370;2023-06-04T04:33:58;34.70;99.90
12602;DHT22;30282;16.436;99.370;2023-06-04T04:36:34;34.60;99.90
12602;DHT22;30282;16.436;99.370;2023-06-04T04:39:07;34.70;99.90
12602;DHT22;30282;16.436;99.370;2023-06-04T04:41:37;34.80;99.90
12602;DHT22;30282;16.436;99.370;2023-06-04T04:44:08;35.00;99.90
12602;DHT22;30282;16.436;99.370;2023-06-04T04:46:38;35.10;99.90
12602;DHT22;30282;16.436;99.370;2023-06-04T04:49:07;35.00;99.90
12602;DHT22;30282;16.436;99.370;2023-06-04T04:51:36;35.20;99.90
12602;DHT22;30282;16.436;99.370;2023-06-04T04:54:06;35.00;99.90
12602;DHT22;30282;16.436;99.370;2023-06-04T04:56:35;35.00;99.90
12602;DHT22;30282;16.436;99.370;2023-06-04T04:59:04;35.10;99.90
12602;DHT22;30282;16.436;99.370;2023-06-04T05:01:35;35.20;99.90
12602;DHT22;30282;16.436;99.370;2023-06-04T05:04:05;35.30;99.90
12602;DHT22;30282;16.436;99.370;2023-06-04T05:06:34;35.40;99.90
12602;DHT22;30282;16.436;99.370;2023-06-04T05:09:03;35.40;99.90
12602;DHT22;30282;16.436;99.370;2023-06-04T05:11:34;35.50;99.90
12602;DHT22;30282;16.436;99.370;2023-06-04T05:14:03;35.60;99.90
12602;DHT22;30282;16.436;99.370;2023-06-04T05:16:35;35.50;99.90
12602;DHT22;30282;16.436;99.370;2023-06-04T05:19:05;35.50;99.90
12602;DHT22;30282;16.436;99.370;2023-06-04T05:21:35;35.50;99.90
12602;DHT22;30282;16.436;99.370;2023-06-04T05:24:04;35.50;99.90
12602;DHT22;30282;16.436;99.370;2023-06-04T05:26:34;35.70;99.90
12602;DHT22;30282;16.436;99.370;2023-06-04T05:29:04;35.60;99.90
12602;DHT22;30282;16.436;99.370;2023-06-04T05:31:35;35.70;99.90
12602;DHT22;30282;16.436;99.370;2023-06-04T05:34:06;35.70;99.90
12602;DHT22;30282;16.436;99.370;2023-06-04T05:36:36;35.50;99.90
12602;DHT22;30282;16.436;99.370;2023-06-04T05:39:06;35.50;99.90
12602;DHT22;30282;16.436;99.370;2023-06-04T05:41:36;35.70;99.90
12602;DHT22;30282;16.436;99.370;2023-06-04T05:44:05;35.60;99.90
12602;DHT22;30282;16.436;99.370;2023-06-04T05:46:39;35.60;99.90
12602;DHT22;30282;16.436;99.370;2023-06-04T05:49:08;35.70;99.90
12602;DHT22;30282;16.436;99.370;2023-06-04T05:51:37;35.70;99.90
12602;DHT22;30282;16.436;99.370;2023-06-04T05:54:07;35.80;99.90
12602;DHT22;30282;16.436;99.370;2023-06-04T05:56:36;35.90;99.90
12602;DHT22;30282;16.436;99.370;2023-06-04T05:59:05;35.90;99.90
12602;DHT22;30282;16.436;99.370;2023-06-04T06:01:36;35.90;99.90
12602;DHT22;30282;16.436;99.370;2023-06-04T06:04:06;35.90;99.90
12602;DHT22;30282;16.436;99.370;2023-06-04T06:06:36;35.90;99.90
12602;DHT22;30282;16.436;99.370;2023-06-04T06:09:06;36.00;99.90
12602;DHT22;30282;16.436;99.370;2023-06-04T06:11:35;36.10;99.90
12602;DHT22;30282;16.436;99.370;2023-06-04T06:14:05;36.10;99.90
12602;DHT22;30282;16.436;99.370;2023-06-04T06:16:36;36.30;99.90
12602;DHT22;30282;16.436;99.370;2023-06-04T06:19:10;36.20;99.90
12602;DHT22;30282;16.436;99.370;2023-06-04T06:21:40;36.40;99.90
12602;DHT22;30282;16.436;99.370;2023-06-04T06:24:12;36.50;99.90
12602;DHT22;30282;16.436;99.370;2023-06-04T06:26:41;36.70;99.90
12602;DHT22;30282;16.436;99.370;2023-06-04T06:29:11;36.80;99.90
12602;DHT22;30282;16.436;99.370;2023-06-04T06:31:42;36.70;99.90
12602;DHT22;30282;16.436;99.370;2023-06-04T06:34:11;36.80;99.90
12602;DHT22;30282;16.436;99.370;2023-06-04T06:36:40;37.00;99.90
12602;DHT22;30282;16.436;99.370;2023-06-04T06:39:11;36.90;99.90
12602;DHT22;30282;16.436;99.370;2023-06-04T06:41:40;37.10;99.90
12602;DHT22;30282;16.436;99.370;2023-06-04T06:44:09;37.10;99.90
12602;DHT22;30282;16.436;99.370;2023-06-04T06:46:40;37.00;99.90
12602;DHT22;30282;16.436;99.370;2023-06-04T06:49:10;36.90;99.90
12602;DHT22;30282;16.436;99.370;2023-06-04T06:51:39;36.80;99.90
12602;DHT22;30282;16.436;99.370;2023-06-04T06:54:13;36.70;99.90
12602;DHT22;30282;16.436;99.370;2023-06-04T06:56:46;36.70;99.90
12602;DHT22;30282;16.436;99.370;2023-06-04T06:59:15;36.70;99.90
12602;DHT22;30282;16.436;99.370;2023-06-04T07:01:46;36.60;99.90
12602;DHT22;30282;16.436;99.370;2023-06-04T07:04:16;36.60;99.90
12602;DHT22;30282;16.436;99.370;2023-06-04T07:06:45;36.60;99.90
12602;DHT22;30282;16.436;99.370;2023-06-04T07:09:14;36.50;99.90
12602;DHT22;30282;16.436;99.370;2023-06-04T07:11:44;36.50;99.90
12602;DHT22;30282;16.436;99.370;2023-06-04T07:14:14;36.50;99.90
12602;DHT22;30282;16.436;99.370;2023-06-04T07:16:45;36.40;99.90
12602;DHT22;30282;16.436;99.370;2023-06-04T07:19:16;36.20;99.90
12602;DHT22;30282;16.436;99.370;2023-06-04T07:21:46;35.90;99.90
12602;DHT22;30282;16.436;99.370;2023-06-04T07:24:15;35.80;99.90
12602;DHT22;30282;16.436;99.370;2023-06-04T07:26:45;35.70;99.90
12602;DHT22;30282;16.436;99.370;2023-06-04T07:29:14;35.70;99.90
12602;DHT22;30282;16.436;99.370;2023-06-04T07:31:45;35.50;99.90
12602;DHT22;30282;16.436;99.370;2023-06-04T07:34:14;35.60;99.90
12602;DHT22;30282;16.436;99.370;2023-06-04T07:36:44;35.60;99.90
12602;DHT22;30282;16.436;99.370;2023-06-04T07:39:13;35.60;99.90
12602;DHT22;30282;16.436;99.370;2023-06-04T07:41:42;35.00;99.90
12602;DHT22;30282;16.436;99.370;2023-06-04T07:44:12;34.30;99.90
12602;DHT22;30282;16.436;99.370;2023-06-04T07:46:42;33.40;99.90
12602;DHT22;30282;16.436;99.370;2023-06-04T07:49:13;32.10;99.90
12602;DHT22;30282;16.436;99.370;2023-06-04T07:51:42;31.40;99.90
12602;DHT22;30282;16.436;99.370;2023-06-04T07:54:11;31.00;99.90
12602;DHT22;30282;16.436;99.370;2023-06-04T07:56:41;30.90;99.90
12602;DHT22;30282;16.436;99.370;2023-06-04T07:59:11;30.90;99.90
12602;DHT22;30282;16.436;99.370;2023-06-04T08:01:40;31.00;99.90
12602;DHT22;30282;16.436;99.370;2023-06-04T08:04:11;31.00;99.90
12602;DHT22;30282;16.436;99.370;2023-06-04T08:06:40;30.90;99.90
12602;DHT22;30282;16.436;99.370;2023-06-04T08:09:10;31.00;99.90
12602;DHT22;30282;16.436;99.370;2023-06-04T08:11:42;31.10;99.90
12602;DHT22;30282;16.436;99.370;2023-06-04T08:14:11;31.10;99.90
12602;DHT22;30282;16.436;99.370;2023-06-04T08:16:41;31.10;99.90
12602;DHT22;30282;16.436;99.370;2023-06-04T08:19:12;31.00;99.90
12602;DHT22;30282;16.436;99.370;2023-06-04T08:21:41;31.00;99.90
12602;DHT22;30282;16.436;99.370;2023-06-04T08:24:11;31.00;99.90
12602;DHT22;30282;16.436;99.370;2023-06-04T08:26:41;30.90;99.90
12602;DHT22;30282;16.436;99.370;2023-06-04T08:29:10;31.00;99.90
12602;DHT22;30282;16.436;99.370;2023-06-04T08:31:39;30.80;99.90
12602;DHT22;30282;16.436;99.370;2023-06-04T08:34:09;30.80;99.90
12602;DHT22;30282;16.436;99.370;2023-06-04T08:36:40;30.80;99.90
12602;DHT22;30282;16.436;99.370;2023-06-04T08:39:09;30.70;99.90
12602;DHT22;30282;16.436;99.370;2023-06-04T08:41:43;30.70;99.90
12602;DHT22;30282;16.436;99.370;2023-06-04T08:44:13;30.70;99.90
12602;DHT22;30282;16.436;99.370;2023-06-04T08:46:45;30.60;99.90
12602;DHT22;30282;16.436;99.370;2023-06-04T08:49:16;30.50;99.90
12602;DHT22;30282;16.436;99.370;2023-06-04T08:51:49;30.40;99.90
12602;DHT22;30282;16.436;99.370;2023-06-04T08:54:19;30.50;99.90
12602;DHT22;30282;16.436;99.370;2023-06-04T08:56:49;30.50;99.90
12602;DHT22;30282;16.436;99.370;2023-06-04T08:59:20;30.60;99.90
12602;DHT22;30282;16.436;99.370;2023-06-04T09:01:52;30.70;99.90
12602;DHT22;30282;16.436;99.370;2023-06-04T09:04:22;30.70;99.90
12602;DHT22;30282;16.436;99.370;2023-06-04T09:06:54;30.70;99.90
12602;DHT22;30282;16.436;99.370;2023-06-04T09:09:24;30.60;99.90
12602;DHT22;30282;16.436;99.370;2023-06-04T09:11:58;30.60;99.90
12602;DHT22;30282;16.436;99.370;2023-06-04T09:14:29;30.60;99.90
12602;DHT22;30282;16.436;99.370;2023-06-04T09:17:00;30.60;99.90
12602;DHT22;30282;16.436;99.370;2023-06-04T09:19:29;30.70;99.90
12602;DHT22;30282;16.436;99.370;2023-06-04T09:22:01;30.70;99.90
12602;DHT22;30282;16.436;99.370;2023-06-04T09:24:39;30.70;99.90
12602;DHT22;30282;16.436;99.370;2023-06-04T09:27:12;30.80;99.90
12602;DHT22;30282;16.436;99.370;2023-06-04T09:29:49;30.90;99.90
12602;DHT22;30282;16.436;99.370;2023-06-04T09:32:31;31.00;99.90
12602;DHT22;30282;16.436;99.370;2023-06-04T09:35:13;31.00;99.90
12602;DHT22;30282;16.436;99.370;2023-06-04T09:37:52;31.00;99.90
12602;DHT22;30282;16.436;99.370;2023-06-04T09:40:22;31.00;99.90
12602;DHT22;30282;16.436;99.370;2023-06-04T09:42:52;31.20;99.90
12602;DHT22;30282;16.436;99.370;2023-06-04T09:45:29;31.30;99.90
12602;DHT22;30282;16.436;99.370;2023-06-04T09:47:59;31.30;99.90
12602;DHT22;30282;16.436;99.370;2023-06-04T09:50:30;31.40;99.90
12602;DHT22;30282;16.436;99.370;2023-06-04T09:53:12;31.50;99.90
12602;DHT22;30282;16.436;99.370;2023-06-04T09:55:42;31.60;99.90
12602;DHT22;30282;16.436;99.370;2023-06-04T09:58:12;31.60;99.90
12602;DHT22;30282;16.436;99.370;2023-06-04T10:00:43;31.60;99.90
12602;DHT22;30282;16.436;99.370;2023-06-04T10:03:16;31.60;99.90
12602;DHT22;30282;16.436;99.370;2023-06-04T10:05:50;31.70;99.90
12602;DHT22;30282;16.436;99.370;2023-06-04T10:08:23;31.70;99.90
12602;DHT22;30282;16.436;99.370;2023-06-04T10:10:56;31.80;99.90
12602;DHT22;30282;16.436;99.370;2023-06-04T10:13:29;31.90;99.90
12602;DHT22;30282;16.436;99.370;2023-06-04T10:15:58;31.90;99.90
12602;DHT22;30282;16.436;99.370;2023-06-04T10:18:31;31.80;99.90
12602;DHT22;30282;16.436;99.370;2023-06-04T10:21:01;31.70;99.90
12602;DHT22;30282;16.436;99.370;2023-06-04T10:23:32;31.80;99.90
12602;DHT22;30282;16.436;99.370;2023-06-04T10:26:02;31.90;99.90
12602;DHT22;30282;16.436;99.370;2023-06-04T10:28:34;31.90;99.90
12602;DHT22;30282;16.436;99.370;2023-06-04T10:31:03;31.90;99.90
12602;DHT22;30282;16.436;99.370;2023-06-04T10:33:33;31.90;99.90
12602;DHT22;30282;16.436;99.370;2023-06-04T10:36:16;32.00;99.90
12602;DHT22;30282;16.436;99.370;2023-06-04T10:38:48;32.00;99.90
12602;DHT22;30282;16.436;99.370;2023-06-04T10:41:18;31.90;99.90
12602;DHT22;30282;16.436;99.370;2023-06-04T10:43:48;31.90;99.90
12602;DHT22;30282;16.436;99.370;2023-06-04T10:46:19;32.00;99.90
12602;DHT22;30282;16.436;99.370;2023-06-04T10:48:51;32.00;99.90
12602;DHT22;30282;16.436;99.370;2023-06-04T10:51:30;32.00;99.90
12602;DHT22;30282;16.436;99.370;2023-06-04T10:54:02;32.00;99.90
12602;DHT22;30282;16.436;99.370;2023-06-04T10:56:32;32.00;99.90
12602;DHT22;30282;16.436;99.370;2023-06-04T10:59:12;32.00;99.90
12602;DHT22;30282;16.436;99.370;2023-06-04T11:01:42;32.00;99.90
12602;DHT22;30282;16.436;99.370;2023-06-04T11:04:20;32.00;99.90
12602;DHT22;30282;16.436;99.370;2023-06-04T11:06:59;32.00;99.90
12602;DHT22;30282;16.436;99.370;2023-06-04T11:09:33;32.00;99.90
12602;DHT22;30282;16.436;99.370;2023-06-04T11:12:04;31.90;99.90
12602;DHT22;30282;16.436;99.370;2023-06-04T11:14:34;31.70;99.90
12602;DHT22;30282;16.436;99.370;2023-06-04T11:17:14;31.70;99.90
12602;DHT22;30282;16.436;99.370;2023-06-04T11:19:43;31.60;99.90
12602;DHT22;30282;16.436;99.370;2023-06-04T11:22:12;31.60;99.90
12602;DHT22;30282;16.436;99.370;2023-06-04T11:24:43;31.50;99.90
12602;DHT22;30282;16.436;99.370;2023-06-04T11:27:13;31.50;99.90
12602;DHT22;30282;16.436;99.370;2023-06-04T11:29:43;31.50;99.90
12602;DHT22;30282;16.436;99.370;2023-06-04T11:32:22;31.50;99.90
12602;DHT22;30282;16.436;99.370;2023-06-04T11:34:51;31.50;99.90
12602;DHT22;30282;16.436;99.370;2023-06-04T11:37:30;31.40;99.90
12602;DHT22;30282;16.436;99.370;2023-06-04T11:40:01;31.40;99.90
12602;DHT22;30282;16.436;99.370;2023-06-04T11:42:32;31.40;99.90
12602;DHT22;30282;16.436;99.370;2023-06-04T11:45:04;31.40;99.90
12602;DHT22;30282;16.436;99.370;2023-06-04T11:47:33;31.30;99.90
12602;DHT22;30282;16.436;99.370;2023-06-04T11:50:03;31.20;99.90
12602;DHT22;30282;16.436;99.370;2023-06-04T11:52:34;31.10;99.90
12602;DHT22;30282;16.436;99.370;2023-06-04T11:55:07;31.10;99.90
12602;DHT22;30282;16.436;99.370;2023-06-04T11:57:36;31.10;99.90
12602;DHT22;30282;16.436;99.370;2023-06-04T12:00:07;31.20;99.90
12602;DHT22;30282;16.436;99.370;2023-06-04T12:02:39;31.20;99.90
12602;DHT22;30282;16.436;99.370;2023-06-04T12:05:17;31.20;99.90
12602;DHT22;30282;16.436;99.370;2023-06-04T12:07:47;31.20;99.90
12602;DHT22;30282;16.436;99.370;2023-06-04T12:10:20;31.10;99.90
12602;DHT22;30282;16.436;99.370;2023-06-04T12:12:55;31.00;99.90
12602;DHT22;30282;16.436;99.370;2023-06-04T12:15:24;31.00;99.90
12602;DHT22;30282;16.436;99.370;2023-06-04T12:17:53;30.90;99.90
12602;DHT22;30282;16.436;99.370;2023-06-04T12:20:34;30.90;99.90
12602;DHT22;30282;16.436;99.370;2023-06-04T12:23:04;30.90;99.90
12602;DHT22;30282;16.436;99.370;2023-06-04T12:25:35;31.00;99.90
12602;DHT22;30282;16.436;99.370;2023-06-04T12:28:05;31.00;99.90
12602;DHT22;30282;16.436;99.370;2023-06-04T12:30:38;31.10;99.90
12602;DHT22;30282;16.436;99.370;2023-06-04T12:33:10;31.00;99.90
12602;DHT22;30282;16.436;99.370;2023-06-04T12:35:39;30.90;99.90
12602;DHT22;30282;16.436;99.370;2023-06-04T12:38:08;30.90;99.90
12602;DHT22;30282;16.436;99.370;2023-06-04T12:40:41;30.80;99.90
12602;DHT22;30282;16.436;99.370;2023-06-04T12:43:11;30.80;99.90
12602;DHT22;30282;16.436;99.370;2023-06-04T12:45:43;30.90;99.90
12602;DHT22;30282;16.436;99.370;2023-06-04T12:48:12;31.00;99.90
12602;DHT22;30282;16.436;99.370;2023-06-04T12:50:42;31.10;99.90
12602;DHT22;30282;16.436;99.370;2023-06-04T12:53:11;31.30;99.90
12602;DHT22;30282;16.436;99.370;2023-06-04T12:55:42;31.30;99.90
12602;DHT22;30282;16.436;99.370;2023-06-04T12:58:12;31.20;99.90
12602;DHT22;30282;16.436;99.370;2023-06-04T13:00:41;31.20;99.90
12602;DHT22;30282;16.436;99.370;2023-06-04T13:03:10;31.20;99.90
12602;DHT22;30282;16.436;99.370;2023-06-04T13:05:40;31.20;99.90
12602;DHT22;30282;16.436;99.370;2023-06-04T13:08:09;31.10;99.90
12602;DHT22;30282;16.436;99.370;2023-06-04T13:10:38;31.10;99.90
12602;DHT22;30282;16.436;99.370;2023-06-04T13:13:12;31.00;99.90
12602;DHT22;30282;16.436;99.370;2023-06-04T13:15:43;31.00;99.90
12602;DHT22;30282;16.436;99.370;2023-06-04T13:18:12;31.00;99.90
12602;DHT22;30282;16.436;99.370;2023-06-04T13:20:42;30.90;99.90
12602;DHT22;30282;16.436;99.370;2023-06-04T13:23:11;30.90;99.90
12602;DHT22;30282;16.436;99.370;2023-06-04T13:25:40;30.70;99.90
12602;DHT22;30282;16.436;99.370;2023-06-04T13:28:11;30.60;99.90
12602;DHT22;30282;16.436;99.370;2023-06-04T13:30:41;30.50;99.90
12602;DHT22;30282;16.436;99.370;2023-06-04T13:33:10;30.50;99.90
12602;DHT22;30282;16.436;99.370;2023-06-04T13:35:56;30.50;99.90
12602;DHT22;30282;16.436;99.370;2023-06-04T13:38:26;30.60;99.90
12602;DHT22;30282;16.436;99.370;2023-06-04T13:40:55;30.60;99.90
12602;DHT22;30282;16.436;99.370;2023-06-04T13:43:26;30.60;99.90
12602;DHT22;30282;16.436;99.370;2023-06-04T13:45:55;30.60;99.90
12602;DHT22;30282;16.436;99.370;2023-06-04T13:48:24;30.60;99.90
12602;DHT22;30282;16.436;99.370;2023-06-04T13:50:53;30.50;99.90
12602;DHT22;30282;16.436;99.370;2023-06-04T13:53:23;30.50;99.90
12602;DHT22;30282;16.436;99.370;2023-06-04T13:55:52;30.40;99.90
12602;DHT22;30282;16.436;99.370;2023-06-04T13:58:26;30.30;99.90
12602;DHT22;30282;16.436;99.370;2023-06-04T14:00:56;30.30;99.90
12602;DHT22;30282;16.436;99.370;2023-06-04T14:03:25;30.30;99.90
12602;DHT22;30282;16.436;99.370;2023-06-04T14:05:54;30.40;99.90
12602;DHT22;30282;16.436;99.370;2023-06-04T14:08:23;30.50;99.90
12602;DHT22;30282;16.436;99.370;2023-06-04T14:10:53;30.40;99.90
12602;DHT22;30282;16.436;99.370;2023-06-04T14:13:23;30.40;99.90
12602;DHT22;30282;16.436;99.370;2023-06-04T14:15:54;30.30;99.90
12602;DHT22;30282;16.436;99.370;2023-06-04T14:18:24;30.30;99.90
12602;DHT22;30282;16.436;99.370;2023-06-04T14:20:53;30.20;99.90
12602;DHT22;30282;16.436;99.370;2023-06-04T14:23:22;30.10;99.90
12602;DHT22;30282;16.436;99.370;2023-06-04T14:25:52;30.00;99.90
12602;DHT22;30282;16.436;99.370;2023-06-04T14:28:21;30.00;99.90
12602;DHT22;30282;16.436;99.370;2023-06-04T14:30:50;30.10;99.90
12602;DHT22;30282;16.436;99.370;2023-06-04T14:33:21;30.10;99.90
12602;DHT22;30282;16.436;99.370;2023-06-04T14:35:50;30.20;99.90
12602;DHT22;30282;16.436;99.370;2023-06-04T14:38:19;30.20;99.90
12602;DHT22;30282;16.436;99.370;2023-06-04T14:40:49;30.20;99.90
12602;DHT22;30282;16.436;99.370;2023-06-04T14:43:20;30.20;99.90
12602;DHT22;30282;16.436;99.370;2023-06-04T14:45:50;30.10;99.90
12602;DHT22;30282;16.436;99.370;2023-06-04T14:48:20;30.10;99.90
12602;DHT22;30282;16.436;99.370;2023-06-04T14:50:53;30.20;99.90
12602;DHT22;30282;16.436;99.370;2023-06-04T14:53:25;30.20;99.90
12602;DHT22;30282;16.436;99.370;2023-06-04T14:55:54;30.20;99.90
12602;DHT22;30282;16.436;99.370;2023-06-04T14:58:24;30.20;99.90
12602;DHT22;30282;16.436;99.370;2023-06-04T15:00:56;30.20;99.90
12602;DHT22;30282;16.436;99.370;2023-06-04T15:03:27;30.20;99.90
12602;DHT22;30282;16.436;99.370;2023-06-04T15:05:57;30.00;99.90
12602;DHT22;30282;16.436;99.370;2023-06-04T15:08:26;29.90;99.90
12602;DHT22;30282;16.436;99.370;2023-06-04T15:10:55;29.90;99.90
12602;DHT22;30282;16.436;99.370;2023-06-04T15:13:24;29.90;99.90
12602;DHT22;30282;16.436;99.370;2023-06-04T15:15:54;30.00;99.90
12602;DHT22;30282;16.436;99.370;2023-06-04T15:18:23;30.10;99.90
12602;DHT22;30282;16.436;99.370;2023-06-04T15:20:54;30.10;99.90
12602;DHT22;30282;16.436;99.370;2023-06-04T15:23:23;30.00;99.90
12602;DHT22;30282;16.436;99.370;2023-06-04T15:25:53;30.00;99.90
12602;DHT22;30282;16.436;99.370;2023-06-04T15:28:22;29.90;99.90
12602;DHT22;30282;16.436;99.370;2023-06-04T15:30:51;29.80;99.90
12602;DHT22;30282;16.436;99.370;2023-06-04T15:33:20;29.70;99.90
12602;DHT22;30282;16.436;99.370;2023-06-04T15:35:50;29.60;99.90
12602;DHT22;30282;16.436;99.370;2023-06-04T15:38:20;29.50;99.90
12602;DHT22;30282;16.436;99.370;2023-06-04T15:40:50;29.40;99.90